createdAt,value
2017-10-19T00:01:01.602Z,54.63
2017-10-19T00:02:08.913Z,55.03
2017-10-19T00:03:14.715Z,54.38
2017-10-19T00:04:22.014Z,53.08
2017-10-19T00:05:28.587Z,54.35
2017-10-19T00:06:35.170Z,55.53
2017-10-19T00:07:40.950Z,55.63
2017-10-19T00:08:46.545Z,55.08
2017-10-19T00:09:52.326Z,56.22
2017-10-19T00:10:58.152Z,58.42
2017-10-19T00:12:03.952Z,55.25
2017-10-19T00:13:09.737Z,55.70
2017-10-19T00:14:15.531Z,55.75
2017-10-19T00:15:22.093Z,56.60
2017-10-19T00:16:28.681Z,57.35
2017-10-19T00:17:34.464Z,57.17
2017-10-19T00:18:40.239Z,55.03
2017-10-19T00:19:46.037Z,54.15
2017-10-19T00:20:51.832Z,55.17
2017-10-19T00:21:57.666Z,56.00
2017-10-19T00:23:04.216Z,54.80
2017-10-19T00:24:10.769Z,55.40
2017-10-19T00:25:17.320Z,53.08
2017-10-19T00:26:24.658Z,53.17
2017-10-19T00:27:30.459Z,54.53
2017-10-19T00:28:37.008Z,55.47
2017-10-19T00:29:42.799Z,54.10
2017-10-19T00:30:48.576Z,54.33
2017-10-19T00:31:54.349Z,54.72
2017-10-19T00:33:00.928Z,55.00
2017-10-19T00:34:06.727Z,53.60
2017-10-19T00:35:12.504Z,50.75
2017-10-19T00:36:18.301Z,53.67
2017-10-19T00:37:24.087Z,56.55
2017-10-19T00:38:30.667Z,56.75
2017-10-19T00:39:36.457Z,57.45
2017-10-19T00:40:43.009Z,56.45
2017-10-19T00:41:48.808Z,56.40
2017-10-19T00:42:54.596Z,54.83
2017-10-19T00:44:00.406Z,58.50
2017-10-19T00:45:06.196Z,55.53
2017-10-19T00:46:12.026Z,57.75
2017-10-19T00:47:17.810Z,59.58
2017-10-19T00:48:24.351Z,58.42
2017-10-19T00:49:30.932Z,58.97
2017-10-19T00:50:36.727Z,57.65
2017-10-19T00:51:42.507Z,60.80
2017-10-19T00:52:49.060Z,61.83
2017-10-19T00:53:55.616Z,64.00
2017-10-19T00:55:02.195Z,64.68
2017-10-19T00:56:07.307Z,65.15
2017-10-19T00:57:13.533Z,63.42
2017-10-19T00:58:19.338Z,66.55
2017-10-19T00:59:24.427Z,62.70
2017-10-19T01:00:30.680Z,68.03
2017-10-19T01:01:37.368Z,68.85
2017-10-19T01:02:43.155Z,73.60
2017-10-19T01:03:48.954Z,73.20
2017-10-19T01:04:54.773Z,74.32
2017-10-19T01:06:01.502Z,72.12
2017-10-19T01:07:08.840Z,77.60
2017-10-19T01:08:14.649Z,75.50
2017-10-19T01:09:20.428Z,76.90
2017-10-19T01:10:26.238Z,77.32
2017-10-19T01:11:32.829Z,75.47
2017-10-19T01:12:38.624Z,76.45
2017-10-19T01:13:45.934Z,78.15
2017-10-19T01:14:51.732Z,73.70
2017-10-19T01:15:58.351Z,74.03
2017-10-19T01:17:04.176Z,72.68
2017-10-19T01:18:10.725Z,71.28
2017-10-19T01:19:17.295Z,68.20
2017-10-19T01:20:23.504Z,69.70
2017-10-19T01:21:28.951Z,72.07
2017-10-19T01:22:34.446Z,70.20
2017-10-19T01:23:39.712Z,71.55
2017-10-19T01:24:45.179Z,71.15
2017-10-19T01:25:51.402Z,69.90
2017-10-19T01:26:56.493Z,70.25
2017-10-19T01:28:01.987Z,71.53
2017-10-19T01:29:08.571Z,71.22
2017-10-19T01:30:13.686Z,79.10
2017-10-19T01:31:19.902Z,78.32
2017-10-19T01:32:25.389Z,76.53
2017-10-19T01:33:30.876Z,73.57
2017-10-19T01:34:36.749Z,73.22
2017-10-19T01:35:43.332Z,75.78
2017-10-19T01:36:48.460Z,73.93
2017-10-19T01:37:53.927Z,73.12
2017-10-19T01:38:59.080Z,71.07
2017-10-19T01:40:04.575Z,74.50
2017-10-19T01:41:10.078Z,73.62
2017-10-19T01:42:15.961Z,72.20
2017-10-19T01:43:21.167Z,74.37
2017-10-19T01:44:26.126Z,79.28
2017-10-19T01:45:31.237Z,76.80
2017-10-19T01:46:36.699Z,77.85
2017-10-19T01:47:42.920Z,79.55
2017-10-19T01:48:48.721Z,79.53
2017-10-19T01:50:01.010Z,80.38
2017-10-19T01:51:06.697Z,79.60
2017-10-19T01:52:12.166Z,75.20
2017-10-19T01:53:18.780Z,78.18
2017-10-19T01:54:24.571Z,82.35
2017-10-19T01:55:30.399Z,73.43
2017-10-19T01:56:36.192Z,78.97
2017-10-19T01:57:42.001Z,74.43
2017-10-19T01:58:47.793Z,75.90
2017-10-19T01:59:53.580Z,76.07
2017-10-19T02:00:59.400Z,76.53
2017-10-19T02:02:05.195Z,74.25
2017-10-19T02:03:10.999Z,74.87
2017-10-19T02:04:16.454Z,77.97
2017-10-19T02:05:23.039Z,74.07
2017-10-19T02:06:28.856Z,73.57
2017-10-19T02:07:35.435Z,75.68
2017-10-19T02:08:41.242Z,74.00
2017-10-19T02:09:47.064Z,70.20
2017-10-19T02:10:52.847Z,72.75
2017-10-19T02:11:59.453Z,72.20
2017-10-19T02:13:05.392Z,69.20
2017-10-19T02:14:11.179Z,71.25
2017-10-19T02:15:16.969Z,67.30
2017-10-19T02:16:22.775Z,69.47
2017-10-19T02:17:29.392Z,65.60
2017-10-19T02:18:35.208Z,67.25
2017-10-19T02:19:41.001Z,65.93
2017-10-19T02:20:46.791Z,69.35
2017-10-19T02:21:52.576Z,68.78
2017-10-19T02:22:58.410Z,65.47
2017-10-19T02:24:04.190Z,62.78
2017-10-19T02:25:10.001Z,61.75
2017-10-19T02:26:15.786Z,62.30
2017-10-19T02:27:21.564Z,60.80
2017-10-19T02:28:27.393Z,62.50
2017-10-19T02:29:33.180Z,62.35
2017-10-19T02:30:38.969Z,60.80
2017-10-19T02:31:45.528Z,62.28
2017-10-19T02:32:52.088Z,61.42
2017-10-19T02:33:58.720Z,65.43
2017-10-19T02:35:04.501Z,60.97
2017-10-19T02:36:10.365Z,59.97
2017-10-19T02:37:16.156Z,63.15
2017-10-19T02:38:22.719Z,60.67
2017-10-19T02:39:30.037Z,62.03
2017-10-19T02:40:35.633Z,64.70
2017-10-19T02:41:42.919Z,62.90
2017-10-19T02:42:48.711Z,60.67
2017-10-19T02:43:54.500Z,62.55
2017-10-19T02:45:01.083Z,62.20
2017-10-19T02:46:06.867Z,62.30
2017-10-19T02:47:12.648Z,60.53
2017-10-19T02:48:19.204Z,62.13
2017-10-19T02:49:25.004Z,61.45
2017-10-19T02:50:30.464Z,63.60
2017-10-19T02:51:37.011Z,66.90
2017-10-19T02:52:42.791Z,65.40
2017-10-19T02:53:49.371Z,62.38
2017-10-19T02:54:55.931Z,61.70
2017-10-19T02:56:01.803Z,62.70
2017-10-19T02:57:06.912Z,61.63
2017-10-19T02:58:12.703Z,61.20
2017-10-19T02:59:18.517Z,60.83
2017-10-19T03:00:24.338Z,61.50
2017-10-19T03:01:30.139Z,60.80
2017-10-19T03:02:35.927Z,60.83
2017-10-19T03:03:41.719Z,59.35
2017-10-19T03:04:47.500Z,60.55
2017-10-19T03:05:53.712Z,59.80
2017-10-19T03:07:00.302Z,62.42
2017-10-19T03:08:06.840Z,59.65
2017-10-19T03:09:12.731Z,60.25
2017-10-19T03:10:18.160Z,59.10
2017-10-19T03:11:23.943Z,58.40
2017-10-19T03:12:29.774Z,59.40
2017-10-19T03:13:35.234Z,58.87
2017-10-19T03:14:41.011Z,56.97
2017-10-19T03:15:47.570Z,58.30
2017-10-19T03:16:54.120Z,56.37
2017-10-19T03:18:00.716Z,57.30
2017-10-19T03:19:06.496Z,54.95
2017-10-19T03:20:12.294Z,58.33
2017-10-19T03:21:18.120Z,55.55
2017-10-19T03:22:24.811Z,53.92
2017-10-19T03:23:30.647Z,53.17
2017-10-19T03:24:36.431Z,54.15
2017-10-19T03:25:42.222Z,57.17
2017-10-19T03:26:48.001Z,53.87
2017-10-19T03:27:53.777Z,55.22
2017-10-19T03:28:59.607Z,56.17
2017-10-19T03:30:05.425Z,52.95
2017-10-19T03:31:11.219Z,51.90
2017-10-19T03:32:17.776Z,53.85
2017-10-19T03:33:24.331Z,53.47
2017-10-19T03:34:30.912Z,52.83
2017-10-19T03:35:36.697Z,52.67
2017-10-19T03:36:42.480Z,49.95
2017-10-19T03:37:49.031Z,51.10
2017-10-19T03:38:55.243Z,48.90
2017-10-19T03:40:01.059Z,50.88
2017-10-19T03:41:06.854Z,51.08
2017-10-19T03:42:12.627Z,51.22
2017-10-19T03:43:18.427Z,49.83
2017-10-19T03:44:24.215Z,50.50
2017-10-19T03:45:30.077Z,49.40
2017-10-19T03:46:35.887Z,48.72
2017-10-19T03:47:42.440Z,50.58
2017-10-19T03:48:48.219Z,50.55
2017-10-19T03:49:54.003Z,49.38
2017-10-19T03:50:59.901Z,49.17
2017-10-19T03:52:05.361Z,47.33
2017-10-19T03:53:11.152Z,48.58
2017-10-19T03:54:17.725Z,46.00
2017-10-19T03:55:24.276Z,48.28
2017-10-19T03:56:30.876Z,46.97
2017-10-19T03:57:36.683Z,48.45
2017-10-19T03:58:44.185Z,48.28
2017-10-19T03:59:49.988Z,48.60
2017-10-19T04:00:55.790Z,48.85
2017-10-19T04:02:01.600Z,50.20
2017-10-19T04:03:08.153Z,47.15
2017-10-19T04:04:13.953Z,47.42
2017-10-19T04:05:19.737Z,46.50
2017-10-19T04:06:27.367Z,48.67
2017-10-19T04:07:33.508Z,49.78
2017-10-19T04:08:39.299Z,47.33
2017-10-19T04:09:45.088Z,47.83
2017-10-19T04:10:50.873Z,49.20
2017-10-19T04:11:56.663Z,48.63
2017-10-19T04:13:02.484Z,49.40
2017-10-19T04:14:09.054Z,47.62
2017-10-19T04:15:14.856Z,46.55
2017-10-19T04:16:20.642Z,46.00
2017-10-19T04:17:26.426Z,48.17
2017-10-19T04:18:32.247Z,47.85
2017-10-19T04:19:38.048Z,47.03
2017-10-19T04:20:43.836Z,48.03
2017-10-19T04:21:49.644Z,47.40
2017-10-19T04:22:55.438Z,46.78
2017-10-19T04:24:01.269Z,48.65
2017-10-19T04:25:07.049Z,48.90
2017-10-19T04:26:12.889Z,49.10
2017-10-19T04:27:18.680Z,48.40
2017-10-19T04:28:24.464Z,47.92
2017-10-19T04:29:30.282Z,47.65
2017-10-19T04:30:36.070Z,47.38
2017-10-19T04:31:42.638Z,46.33
2017-10-19T04:32:49.009Z,48.33
2017-10-19T04:33:54.828Z,46.75
2017-10-19T04:35:00.642Z,48.60
2017-10-19T04:36:06.432Z,46.95
2017-10-19T04:37:12.979Z,48.25
2017-10-19T04:38:19.531Z,47.88
2017-10-19T04:39:25.511Z,47.10
2017-10-19T04:40:31.331Z,47.30
2017-10-19T04:41:37.892Z,47.88
2017-10-19T04:42:44.455Z,47.90
2017-10-19T04:43:51.015Z,46.92
2017-10-19T04:44:57.560Z,48.75
2017-10-19T04:46:03.371Z,47.55
2017-10-19T04:47:10.004Z,47.03
2017-10-19T04:48:15.796Z,49.05
2017-10-19T04:49:21.441Z,49.15
2017-10-19T04:50:28.003Z,46.80
2017-10-19T04:51:33.664Z,46.60
2017-10-19T04:52:40.232Z,49.03
2017-10-19T04:53:46.033Z,49.25
2017-10-19T04:54:51.827Z,48.83
2017-10-19T04:55:57.623Z,48.55
2017-10-19T04:57:03.467Z,48.05
2017-10-19T04:58:09.514Z,46.85
2017-10-19T04:59:15.117Z,46.63
2017-10-19T05:00:20.908Z,47.62
2017-10-19T05:01:26.700Z,46.13
2017-10-19T05:02:32.517Z,47.58
2017-10-19T05:03:39.083Z,46.25
2017-10-19T05:04:45.039Z,46.55
2017-10-19T05:05:50.828Z,44.97
2017-10-19T05:06:56.644Z,46.47
2017-10-19T05:08:02.332Z,45.88
2017-10-19T05:09:08.136Z,48.08
2017-10-19T05:10:13.951Z,45.92
2017-10-19T05:11:19.404Z,46.60
2017-10-19T05:12:25.206Z,45.22
2017-10-19T05:13:31.454Z,46.75
2017-10-19T05:14:38.018Z,45.17
2017-10-19T05:15:44.581Z,47.13
2017-10-19T05:16:51.145Z,46.63
2017-10-19T05:17:57.712Z,44.88
2017-10-19T05:19:03.519Z,47.20
2017-10-19T05:20:09.323Z,44.95
2017-10-19T05:21:15.105Z,45.35
2017-10-19T05:22:20.896Z,46.05
2017-10-19T05:23:26.696Z,45.47
2017-10-19T05:24:32.929Z,46.00
2017-10-19T05:25:38.712Z,46.20
2017-10-19T05:26:44.530Z,44.33
2017-10-19T05:27:51.128Z,45.80
2017-10-19T05:28:56.907Z,44.78
2017-10-19T05:30:02.829Z,45.33
2017-10-19T05:31:08.785Z,42.50
2017-10-19T05:32:14.668Z,44.92
2017-10-19T05:33:20.567Z,43.05
2017-10-19T05:34:30.965Z,45.30
2017-10-19T05:35:36.861Z,44.17
2017-10-19T05:36:42.688Z,41.55
2017-10-19T05:37:48.712Z,44.53
2017-10-19T05:38:55.428Z,43.63
2017-10-19T05:40:01.312Z,44.90
2017-10-19T05:41:08.550Z,44.35
2017-10-19T05:42:14.376Z,44.10
2017-10-19T05:43:20.243Z,45.28
2017-10-19T05:44:26.486Z,43.20
2017-10-19T05:45:32.346Z,42.90
2017-10-19T05:46:38.187Z,40.97
2017-10-19T05:47:43.991Z,42.35
2017-10-19T05:48:49.779Z,41.00
2017-10-19T05:49:55.784Z,43.78
2017-10-19T05:51:01.573Z,42.10
2017-10-19T05:52:08.229Z,45.28
2017-10-19T05:53:14.008Z,41.90
2017-10-19T05:54:20.288Z,41.88
2017-10-19T05:55:26.167Z,40.45
2017-10-19T05:56:32.062Z,41.47
2017-10-19T05:57:38.033Z,42.58
2017-10-19T05:58:43.896Z,43.67
2017-10-19T05:59:49.773Z,42.05
2017-10-19T06:00:55.748Z,40.50
2017-10-19T06:02:01.649Z,42.65
2017-10-19T06:03:07.568Z,40.47
2017-10-19T06:04:13.544Z,40.03
2017-10-19T06:05:19.530Z,39.95
2017-10-19T06:06:26.228Z,40.83
2017-10-19T06:07:32.125Z,39.38
2017-10-19T06:08:38.796Z,41.05
2017-10-19T06:09:45.349Z,39.08
2017-10-19T06:10:52.147Z,38.92
2017-10-19T06:11:57.940Z,39.25
2017-10-19T06:13:04.496Z,38.90
2017-10-19T06:14:10.308Z,38.17
2017-10-19T06:15:16.086Z,38.80
2017-10-19T06:16:21.864Z,37.13
2017-10-19T06:17:35.050Z,37.70
2017-10-19T06:18:40.836Z,38.20
2017-10-19T06:20:01.148Z,39.40
2017-10-19T06:21:07.497Z,37.70
2017-10-19T06:22:13.292Z,36.83
2017-10-19T06:23:19.721Z,38.42
2017-10-19T06:24:26.641Z,36.20
2017-10-19T06:25:32.681Z,38.40
2017-10-19T06:26:38.513Z,37.28
2017-10-19T06:27:44.318Z,36.60
2017-10-19T06:28:50.142Z,36.70
2017-10-19T06:29:55.914Z,38.58
2017-10-19T06:31:01.724Z,38.28
2017-10-19T06:32:07.511Z,35.92
2017-10-19T06:33:14.108Z,37.55
2017-10-19T06:34:19.993Z,39.13
2017-10-19T06:35:25.793Z,37.78
2017-10-19T06:36:31.676Z,37.00
2017-10-19T06:37:37.461Z,35.22
2017-10-19T06:38:43.253Z,36.50
2017-10-19T06:39:50.560Z,36.75
2017-10-19T06:40:57.114Z,37.35
2017-10-19T06:42:03.696Z,36.92
2017-10-19T06:43:10.046Z,36.90
2017-10-19T06:44:16.604Z,38.47
2017-10-19T06:45:23.170Z,36.42
2017-10-19T06:46:29.734Z,38.15
2017-10-19T06:47:35.544Z,35.90
2017-10-19T06:48:41.338Z,36.97
2017-10-19T06:49:47.128Z,35.55
2017-10-19T06:50:52.911Z,36.00
2017-10-19T06:51:58.766Z,36.72
2017-10-19T06:53:04.588Z,34.28
2017-10-19T06:54:10.384Z,35.35
2017-10-19T06:55:16.177Z,36.17
2017-10-19T06:56:22.737Z,34.35
2017-10-19T06:57:28.516Z,35.33
2017-10-19T06:58:34.330Z,36.33
2017-10-19T06:59:40.107Z,35.63
2017-10-19T07:00:45.440Z,34.63
2017-10-19T07:01:51.226Z,35.72
2017-10-19T07:02:57.793Z,34.28
2017-10-19T07:04:04.370Z,35.22
2017-10-19T07:05:10.167Z,35.80
2017-10-19T07:06:15.978Z,37.25
2017-10-19T07:07:21.789Z,36.50
2017-10-19T07:08:27.574Z,35.65
2017-10-19T07:09:33.397Z,37.38
2017-10-19T07:10:39.202Z,35.35
2017-10-19T07:11:45.769Z,34.08
2017-10-19T07:12:52.391Z,35.78
2017-10-19T07:13:58.204Z,36.55
2017-10-19T07:15:04.028Z,36.25
2017-10-19T07:16:09.808Z,35.05
2017-10-19T07:17:15.606Z,38.42
2017-10-19T07:18:21.384Z,34.75
2017-10-19T07:19:27.200Z,35.38
2017-10-19T07:20:33.020Z,35.03
2017-10-19T07:21:39.564Z,34.10
2017-10-19T07:22:45.346Z,36.72
2017-10-19T07:23:51.136Z,36.28
2017-10-19T07:24:57.567Z,35.05
2017-10-19T07:26:03.392Z,35.70
2017-10-19T07:27:09.183Z,36.17
2017-10-19T07:28:14.363Z,34.15
2017-10-19T07:29:20.155Z,35.60
2017-10-19T07:30:25.264Z,34.10
2017-10-19T07:31:31.104Z,34.22
2017-10-19T07:32:36.564Z,32.47
2017-10-19T07:33:43.175Z,33.63
2017-10-19T07:34:48.967Z,35.17
2017-10-19T07:35:54.799Z,33.90
2017-10-19T07:37:00.624Z,34.00
2017-10-19T07:38:06.408Z,32.20
2017-10-19T07:39:12.993Z,35.03
2017-10-19T07:40:18.779Z,33.80
2017-10-19T07:41:24.588Z,33.95
2017-10-19T07:42:30.439Z,33.53
2017-10-19T07:43:36.232Z,31.75
2017-10-19T07:44:42.016Z,30.00
2017-10-19T07:46:11.263Z,30.10
2017-10-19T07:47:20.110Z,28.52
2017-10-19T07:48:26.130Z,28.15
2017-10-19T07:49:32.692Z,28.75
2017-10-19T07:50:39.247Z,29.30
2017-10-19T07:51:44.692Z,27.23
2017-10-19T07:52:51.246Z,27.60
2017-10-19T07:53:57.692Z,26.58
2017-10-19T07:55:03.468Z,26.37
2017-10-19T07:56:09.269Z,26.87
2017-10-19T07:57:15.056Z,26.37
2017-10-19T07:58:20.853Z,27.02
2017-10-19T07:59:26.664Z,26.75
2017-10-19T08:00:32.511Z,27.65
2017-10-19T08:01:38.291Z,27.20
2017-10-19T08:02:44.068Z,26.37
2017-10-19T08:03:50.622Z,27.75
2017-10-19T08:04:57.189Z,27.08
2017-10-19T08:06:03.825Z,26.90
2017-10-19T08:07:09.422Z,25.35
2017-10-19T08:08:15.029Z,26.60
2017-10-19T08:09:20.883Z,25.65
2017-10-19T08:10:26.692Z,26.95
2017-10-19T08:11:33.399Z,26.83
2017-10-19T08:12:39.000Z,26.65
2017-10-19T08:13:45.557Z,26.45
2017-10-19T08:14:51.340Z,26.08
2017-10-19T08:15:57.148Z,26.83
2017-10-19T08:17:03.524Z,26.95
2017-10-19T08:18:09.317Z,25.55
2017-10-19T08:19:15.089Z,26.30
2017-10-19T08:20:21.637Z,26.12
2017-10-19T08:21:27.440Z,26.20
2017-10-19T08:22:33.229Z,26.05
2017-10-19T08:23:39.104Z,26.50
2017-10-19T08:24:44.878Z,25.35
2017-10-19T08:25:50.656Z,26.30
2017-10-19T08:26:57.061Z,27.67
2017-10-19T08:28:02.852Z,27.37
2017-10-19T08:29:09.231Z,28.20
2017-10-19T08:30:15.782Z,25.75
2017-10-19T08:31:22.331Z,25.52
2017-10-19T08:32:28.183Z,25.83
2017-10-19T08:33:34.721Z,26.75
2017-10-19T08:34:41.265Z,26.62
2017-10-19T08:35:47.055Z,26.35
2017-10-19T08:36:53.608Z,29.75
2017-10-19T08:38:00.184Z,26.33
2017-10-19T08:39:05.619Z,24.80
2017-10-19T08:40:11.399Z,29.45
2017-10-19T08:41:17.185Z,26.05
2017-10-19T08:42:23.740Z,27.80
2017-10-19T08:43:30.134Z,27.20
2017-10-19T08:44:35.909Z,26.42
2017-10-19T08:45:41.685Z,27.33
2017-10-19T08:46:48.239Z,27.30
2017-10-19T08:47:54.785Z,27.17
2017-10-19T08:49:00.601Z,28.08
2017-10-19T08:50:06.381Z,27.58
2017-10-19T08:51:12.168Z,26.55
2017-10-19T08:52:17.938Z,28.00
2017-10-19T08:53:23.720Z,29.00
2017-10-19T08:54:30.302Z,28.45
2017-10-19T08:55:36.094Z,28.92
2017-10-19T08:56:41.880Z,28.00
2017-10-19T08:57:47.727Z,27.90
2017-10-19T08:58:53.516Z,29.12
2017-10-19T08:59:59.348Z,29.30
2017-10-19T09:01:05.165Z,28.92
2017-10-19T09:02:10.950Z,28.25
2017-10-19T09:03:16.555Z,28.30
2017-10-19T09:04:22.339Z,26.80
2017-10-19T09:05:28.154Z,26.40
2017-10-19T09:06:33.939Z,27.40
2017-10-19T09:07:39.723Z,26.37
2017-10-19T09:08:45.509Z,25.42
2017-10-19T09:09:51.285Z,26.30
2017-10-19T09:10:57.083Z,26.52
2017-10-19T09:12:02.885Z,24.23
2017-10-19T09:13:08.668Z,23.90
2017-10-19T09:14:15.963Z,27.15
2017-10-19T09:15:22.511Z,24.55
2017-10-19T09:16:28.315Z,24.98
2017-10-19T09:17:34.097Z,25.33
2017-10-19T09:18:39.884Z,24.60
2017-10-19T09:19:45.658Z,25.62
2017-10-19T09:20:51.449Z,24.20
2017-10-19T09:21:57.261Z,24.90
2017-10-19T09:23:03.051Z,25.35
2017-10-19T09:24:08.910Z,24.63
2017-10-19T09:25:14.518Z,24.05
2017-10-19T09:26:20.344Z,24.80
2017-10-19T09:27:26.236Z,23.73
2017-10-19T09:28:32.017Z,24.27
2017-10-19T09:29:37.819Z,23.45
2017-10-19T09:30:43.599Z,23.80
2017-10-19T09:31:49.381Z,22.85
2017-10-19T09:32:55.200Z,23.05
2017-10-19T09:34:00.980Z,22.77
2017-10-19T09:35:06.751Z,23.58
2017-10-19T09:36:12.550Z,24.90
2017-10-19T09:37:18.324Z,22.85
2017-10-19T09:38:24.179Z,23.58
2017-10-19T09:39:29.790Z,24.37
2017-10-19T09:40:35.596Z,23.40
2017-10-19T09:41:42.148Z,23.08
2017-10-19T09:42:49.260Z,22.77
2017-10-19T09:43:55.106Z,23.58
2017-10-19T09:45:00.955Z,22.67
2017-10-19T09:46:06.743Z,23.60
2017-10-19T09:47:12.528Z,23.40
2017-10-19T09:48:18.132Z,22.27
2017-10-19T09:49:24.699Z,21.87
2017-10-19T09:50:31.244Z,22.20
2017-10-19T09:51:37.028Z,22.00
2017-10-19T09:52:42.963Z,22.25
2017-10-19T09:53:49.744Z,23.27
2017-10-19T09:54:55.556Z,22.33
2017-10-19T09:56:02.138Z,21.20
2017-10-19T09:57:07.918Z,21.37
2017-10-19T09:58:13.729Z,20.58
2017-10-19T09:59:19.517Z,20.73
2017-10-19T10:00:25.334Z,19.40
2017-10-19T10:01:31.116Z,19.95
2017-10-19T10:02:36.902Z,19.00
2017-10-19T10:03:42.681Z,18.60
2017-10-19T10:04:48.466Z,17.92
2017-10-19T10:05:55.038Z,19.25
2017-10-19T10:07:00.816Z,19.83
2017-10-19T10:08:06.595Z,18.20
2017-10-19T10:09:12.635Z,18.87
2017-10-19T10:10:18.419Z,19.15
2017-10-19T10:11:24.227Z,19.05
2017-10-19T10:12:30.034Z,19.60
2017-10-19T10:13:35.833Z,19.60
2017-10-19T10:14:42.379Z,18.40
2017-10-19T10:15:48.925Z,19.20
2017-10-19T10:16:54.738Z,19.35
2017-10-19T10:18:00.524Z,18.15
2017-10-19T10:19:07.092Z,20.58
2017-10-19T10:20:12.893Z,19.08
2017-10-19T10:21:18.678Z,19.25
2017-10-19T10:22:25.271Z,18.55
2017-10-19T10:23:31.058Z,18.12
2017-10-19T10:24:38.454Z,18.15
2017-10-19T10:25:45.003Z,18.42
2017-10-19T10:26:50.794Z,19.83
2017-10-19T10:27:56.626Z,17.55
2017-10-19T10:29:02.434Z,17.70
2017-10-19T10:30:09.030Z,17.55
2017-10-19T10:31:14.872Z,15.57
2017-10-19T10:32:20.701Z,15.55
2017-10-19T10:33:26.559Z,16.65
2017-10-19T10:34:32.336Z,15.43
2017-10-19T10:35:38.140Z,16.20
2017-10-19T10:36:43.937Z,16.10
2017-10-19T10:37:49.730Z,15.73
2017-10-19T10:38:55.546Z,15.27
2017-10-19T10:40:02.117Z,15.68
2017-10-19T10:41:07.913Z,15.35
2017-10-19T10:42:13.755Z,16.62
2017-10-19T10:43:19.538Z,15.52
2017-10-19T10:44:26.131Z,15.05
2017-10-19T10:45:31.912Z,14.80
2017-10-19T10:46:38.485Z,14.77
2017-10-19T10:47:45.044Z,15.32
2017-10-19T10:48:50.847Z,15.38
2017-10-19T10:49:56.321Z,14.23
2017-10-19T10:51:01.988Z,13.90
2017-10-19T10:52:07.157Z,16.27
2017-10-19T10:53:12.975Z,15.63
2017-10-19T10:54:18.765Z,16.58
2017-10-19T10:55:24.576Z,12.95
2017-10-19T10:56:30.189Z,14.57
2017-10-19T10:57:35.998Z,13.48
2017-10-19T10:58:41.808Z,14.93
2017-10-19T10:59:47.686Z,14.25
2017-10-19T11:00:54.307Z,14.80
2017-10-19T11:02:00.087Z,15.02
2017-10-19T11:03:05.881Z,13.18
2017-10-19T11:04:11.715Z,13.95
2017-10-19T11:05:17.501Z,14.30
2017-10-19T11:06:23.321Z,14.35
2017-10-19T11:07:29.107Z,13.55
2017-10-19T11:08:35.670Z,14.82
2017-10-19T11:09:42.061Z,13.80
2017-10-19T11:10:47.666Z,13.40
2017-10-19T11:11:54.247Z,13.05
2017-10-19T11:13:00.042Z,13.13
2017-10-19T11:14:05.859Z,11.57
2017-10-19T11:15:11.651Z,11.70
2017-10-19T11:16:18.208Z,12.05
2017-10-19T11:17:24.805Z,11.50
2017-10-19T11:18:30.624Z,12.48
2017-10-19T11:19:37.193Z,11.73
2017-10-19T11:20:43.743Z,11.60
2017-10-19T11:21:50.294Z,11.40
2017-10-19T11:22:56.170Z,11.73
2017-10-19T11:24:01.969Z,11.82
2017-10-19T11:25:07.757Z,11.60
2017-10-19T11:26:13.832Z,12.50
2017-10-19T11:27:19.628Z,13.10
2017-10-19T11:28:26.214Z,11.80
2017-10-19T11:29:32.010Z,11.35
2017-10-19T11:30:37.794Z,11.45
2017-10-19T11:31:43.585Z,13.15
2017-10-19T11:32:49.371Z,11.80
2017-10-19T11:33:55.196Z,12.52
2017-10-19T11:35:01.566Z,12.90
2017-10-19T11:36:08.128Z,12.95
2017-10-19T11:37:13.911Z,12.82
2017-10-19T11:38:19.709Z,12.25
2017-10-19T11:39:25.533Z,12.35
2017-10-19T11:40:32.090Z,12.00
2017-10-19T11:41:37.881Z,11.43
2017-10-19T11:42:43.679Z,12.35
2017-10-19T11:43:50.230Z,12.88
2017-10-19T11:44:56.077Z,12.55
2017-10-19T11:46:02.634Z,13.70
2017-10-19T11:47:09.933Z,13.82
2017-10-19T11:48:15.727Z,14.13
2017-10-19T11:49:21.232Z,14.30
2017-10-19T11:50:27.049Z,13.80
2017-10-19T11:51:33.594Z,16.10
2017-10-19T11:52:39.394Z,16.55
2017-10-19T11:53:44.972Z,17.67
2017-10-19T11:54:50.881Z,16.98
2017-10-19T11:55:56.695Z,16.33
2017-10-19T11:57:02.492Z,16.60
2017-10-19T11:58:08.376Z,16.95
2017-10-19T11:59:14.164Z,16.70
2017-10-19T12:00:19.782Z,15.40
2017-10-19T12:01:25.592Z,15.40
2017-10-19T12:02:32.153Z,15.77
2017-10-19T12:03:38.720Z,16.98
2017-10-19T12:04:44.518Z,13.57
2017-10-19T12:05:50.300Z,12.55
2017-10-19T12:06:56.878Z,13.32
2017-10-19T12:08:02.682Z,14.00
2017-10-19T12:09:09.234Z,13.25
2017-10-19T12:10:15.031Z,13.23
2017-10-19T12:11:20.866Z,12.15
2017-10-19T12:12:26.690Z,11.50
2017-10-19T12:13:33.240Z,11.73
2017-10-19T12:14:39.796Z,11.55
2017-10-19T12:15:45.587Z,11.52
2017-10-19T12:16:51.413Z,12.48
2017-10-19T12:17:57.227Z,11.00
2017-10-19T12:19:03.775Z,11.70
2017-10-19T12:20:09.573Z,10.90
2017-10-19T12:21:15.356Z,11.00
2017-10-19T12:22:21.907Z,9.95
2017-10-19T12:23:27.756Z,9.63
2017-10-19T12:24:33.548Z,9.30
2017-10-19T12:25:40.092Z,9.50
2017-10-19T12:26:46.643Z,10.25
2017-10-19T12:27:53.183Z,9.18
2017-10-19T12:28:58.985Z,8.55
2017-10-19T12:30:04.762Z,8.27
2017-10-19T12:31:10.527Z,8.32
2017-10-19T12:32:16.301Z,7.72
2017-10-19T12:33:22.073Z,8.07
2017-10-19T12:34:27.950Z,7.62
2017-10-19T12:35:33.724Z,6.15
2017-10-19T12:36:39.487Z,7.15
2017-10-19T12:37:45.296Z,6.75
2017-10-19T12:38:51.839Z,7.07
2017-10-19T12:39:57.636Z,7.15
2017-10-19T12:41:03.395Z,6.60
2017-10-19T12:42:09.164Z,6.72
2017-10-19T12:43:14.933Z,6.68
2017-10-19T12:44:20.712Z,6.80
2017-10-19T12:45:26.510Z,5.75
2017-10-19T12:46:33.049Z,5.82
2017-10-19T12:48:47.492Z,6.55
2017-10-19T12:49:54.009Z,6.15
2017-10-19T12:50:59.793Z,6.53
2017-10-19T12:52:06.352Z,5.93
2017-10-19T12:53:12.864Z,5.82
2017-10-19T12:54:18.617Z,5.50
2017-10-19T12:55:24.371Z,5.35
2017-10-19T12:56:30.172Z,5.80
2017-10-19T12:57:35.917Z,5.95
2017-10-19T12:58:41.553Z,6.35
2017-10-19T12:59:47.298Z,5.80
2017-10-19T13:00:53.072Z,6.15
2017-10-19T13:01:59.098Z,6.00
2017-10-19T13:03:04.837Z,6.50
2017-10-19T13:04:10.601Z,6.40
2017-10-19T13:05:16.355Z,6.05
2017-10-19T13:06:22.105Z,6.15
2017-10-19T13:07:27.888Z,6.20
2017-10-19T13:08:33.637Z,6.20
2017-10-19T13:09:39.439Z,6.07
2017-10-19T13:10:45.017Z,5.43
2017-10-19T13:11:50.783Z,6.35
2017-10-19T13:12:56.559Z,5.55
2017-10-19T13:14:03.090Z,5.28
2017-10-19T13:15:08.851Z,5.62
2017-10-19T13:16:14.421Z,5.80
2017-10-19T13:17:20.187Z,5.95
2017-10-19T13:18:25.976Z,4.95
2017-10-19T13:19:32.492Z,5.85
2017-10-19T13:20:38.246Z,5.35
2017-10-19T13:21:43.992Z,5.75
2017-10-19T13:22:49.761Z,5.32
2017-10-19T13:23:55.546Z,6.30
2017-10-19T13:25:01.290Z,6.43
2017-10-19T13:26:07.033Z,6.35
2017-10-19T13:27:12.768Z,6.65
2017-10-19T13:28:18.521Z,6.10
2017-10-19T13:29:24.307Z,5.93
2017-10-19T13:30:30.048Z,4.68
2017-10-19T13:31:35.820Z,4.87
2017-10-19T13:32:41.572Z,5.15
2017-10-19T13:33:47.307Z,6.10
2017-10-19T13:34:53.089Z,5.20
2017-10-19T13:35:58.845Z,5.40
2017-10-19T13:37:04.592Z,5.97
2017-10-19T13:38:10.331Z,5.85
2017-10-19T13:39:16.106Z,5.90
2017-10-19T13:40:21.888Z,4.85
2017-10-19T13:41:27.654Z,5.70
2017-10-19T13:42:34.909Z,5.03
2017-10-19T13:43:40.669Z,5.28
2017-10-19T13:44:47.985Z,6.18
2017-10-19T13:45:54.537Z,5.40
2017-10-19T13:47:01.054Z,4.43
2017-10-19T13:48:06.805Z,4.80
2017-10-19T13:49:12.573Z,5.35
2017-10-19T13:50:19.148Z,4.78
2017-10-19T13:51:24.928Z,6.00
2017-10-19T13:52:30.685Z,5.00
2017-10-19T13:53:36.483Z,5.93
2017-10-19T13:54:42.238Z,4.80
2017-10-19T13:55:47.985Z,5.03
2017-10-19T13:56:53.777Z,4.95
2017-10-19T13:58:00.360Z,5.55
2017-10-19T13:59:06.124Z,5.37
2017-10-19T14:00:11.888Z,4.43
2017-10-19T14:01:17.640Z,5.15
2017-10-19T14:02:23.422Z,4.85
2017-10-19T14:03:29.173Z,6.10
2017-10-19T14:04:34.931Z,5.75
2017-10-19T14:05:40.677Z,5.07
2017-10-19T14:06:46.446Z,5.12
2017-10-19T14:07:52.233Z,6.55
2017-10-19T14:08:57.981Z,5.68
2017-10-19T14:10:03.745Z,5.47
2017-10-19T14:11:09.486Z,5.25
2017-10-19T14:12:15.270Z,5.95
2017-10-19T14:13:21.317Z,5.10
2017-10-19T14:14:27.153Z,5.40
2017-10-19T14:15:32.978Z,5.20
2017-10-19T14:16:38.727Z,5.18